createdAt,value
2019-04-30T00:03:02.327Z,9.73
2019-04-30T00:08:05.846Z,10.63
2019-04-30T00:13:10.399Z,12.97
2019-04-30T00:18:13.189Z,11.70
2019-04-30T00:23:17.765Z,9.40
2019-04-30T00:28:20.368Z,10.70
2019-04-30T00:33:25.114Z,11.73
2019-04-30T00:38:29.527Z,11.50
2019-04-30T00:43:32.327Z,10.27
2019-04-30T00:48:35.686Z,11.03
2019-04-30T00:53:38.474Z,12.97
2019-04-30T00:58:41.205Z,10.17
2019-04-30T01:03:49.567Z,11.10
2019-04-30T01:08:52.380Z,15.73
2019-04-30T01:13:55.289Z,14.50
2019-04-30T01:19:01.004Z,15.57
2019-04-30T01:24:03.794Z,16.73
2019-04-30T01:29:06.931Z,10.70
2019-04-30T01:34:13.919Z,16.93
2019-04-30T01:39:14.884Z,14.03
2019-04-30T01:44:19.359Z,14.90
2019-04-30T01:49:25.714Z,17.47
2019-04-30T01:54:26.616Z,15.63
2019-04-30T01:59:54.836Z,15.57
2019-04-30T02:04:59.137Z,18.70
2019-04-30T02:10:02.247Z,14.00
2019-04-30T02:15:05.249Z,15.57
2019-04-30T02:20:09.225Z,13.50
2019-04-30T02:25:11.890Z,16.40
2019-04-30T02:30:14.477Z,15.57
2019-04-30T02:35:45.623Z,15.30
2019-04-30T02:40:49.995Z,16.57
2019-04-30T02:45:55.043Z,16.20
2019-04-30T02:51:01.256Z,14.57
2019-04-30T02:56:04.947Z,13.27
2019-04-30T03:01:10.154Z,21.57
2019-04-30T03:06:12.221Z,16.73
2019-04-30T03:11:16.329Z,20.13
2019-04-30T03:16:23.404Z,20.47
2019-04-30T03:21:44.769Z,16.83
2019-04-30T03:26:50.005Z,16.60
2019-04-30T03:31:53.371Z,19.97
2019-04-30T03:37:01.638Z,17.70
2019-04-30T03:42:03.657Z,20.70
2019-04-30T03:47:06.341Z,16.83
2019-04-30T03:52:12.569Z,19.53
2019-04-30T03:57:13.578Z,22.37
2019-04-30T04:02:25.880Z,22.77
2019-04-30T04:07:40.943Z,21.27
2019-04-30T04:12:43.622Z,20.90
2019-04-30T04:17:46.374Z,26.13
2019-04-30T04:22:49.722Z,23.67
2019-04-30T04:27:56.459Z,25.90
2019-04-30T04:32:59.883Z,22.97
2019-04-30T04:38:02.799Z,24.27
2019-04-30T04:43:05.415Z,23.77
2019-04-30T04:48:09.564Z,23.30
2019-04-30T04:53:12.480Z,24.77
2019-04-30T04:58:15.225Z,22.27
2019-04-30T05:03:35.970Z,22.67
2019-04-30T05:08:39.667Z,21.30
2019-04-30T05:13:42.424Z,17.67
2019-04-30T05:18:46.336Z,21.87
2019-04-30T05:23:50.218Z,19.50
2019-04-30T05:28:53.041Z,21.60
2019-04-30T05:33:55.743Z,21.63
2019-04-30T05:38:58.793Z,21.70
2019-04-30T05:44:02.141Z,18.77
2019-04-30T05:49:04.916Z,23.13
2019-04-30T05:54:09.109Z,27.00
2019-04-30T05:59:11.953Z,19.30
2019-04-30T06:04:14.634Z,19.60
2019-04-30T06:09:33.935Z,21.70
2019-04-30T06:14:48.997Z,22.05
2019-04-30T06:19:48.773Z,16.77
2019-04-30T06:24:51.328Z,19.37
2019-04-30T06:29:54.131Z,16.03
2019-04-30T06:34:59.282Z,19.15
2019-04-30T06:40:02.225Z,15.30
2019-04-30T06:45:05.732Z,19.87
2019-04-30T06:50:09.669Z,18.53
2019-04-30T06:55:12.797Z,14.75
2019-04-30T07:00:15.447Z,13.38
2019-04-30T07:05:18.595Z,18.23
2019-04-30T07:10:25.504Z,14.05
2019-04-30T07:15:29.561Z,17.57
2019-04-30T07:20:34.101Z,15.70
2019-04-30T07:25:38.940Z,13.78
2019-04-30T07:30:41.304Z,13.40
2019-04-30T07:35:44.099Z,15.93
2019-04-30T07:40:46.755Z,14.98
2019-04-30T07:45:49.649Z,12.70
2019-04-30T07:50:53.614Z,11.00
2019-04-30T07:55:56.341Z,13.10
2019-04-30T08:00:59.363Z,9.98
2019-04-30T08:06:02.827Z,13.18
2019-04-30T08:11:05.676Z,13.40
2019-04-30T08:16:09.750Z,13.68
2019-04-30T08:21:12.538Z,17.67
2019-04-30T08:26:15.184Z,9.73
2019-04-30T08:31:19.616Z,9.40
2019-04-30T08:36:22.657Z,13.03
2019-04-30T08:41:25.405Z,14.87
2019-04-30T08:46:28.694Z,9.85
2019-04-30T08:51:31.907Z,10.75
2019-04-30T08:56:34.895Z,9.43
2019-04-30T09:01:38.716Z,10.10
2019-04-30T09:06:41.446Z,9.40
2019-04-30T09:11:53.035Z,8.23
2019-04-30T09:16:49.546Z,10.95
2019-04-30T09:21:53.640Z,6.67
2019-04-30T09:26:56.340Z,8.00
2019-04-30T09:31:59.518Z,8.10
2019-04-30T09:37:02.482Z,5.87
2019-04-30T09:42:05.069Z,7.78
2019-04-30T09:47:08.853Z,9.20
2019-04-30T09:52:11.821Z,7.95
2019-04-30T09:57:14.746Z,7.62
2019-04-30T10:02:19.069Z,6.62
2019-04-30T10:07:22.066Z,8.63
2019-04-30T10:12:24.739Z,6.60
2019-04-30T10:17:36.084Z,7.62
2019-04-30T10:22:40.070Z,8.85
2019-04-30T10:27:43.039Z,6.83
2019-04-30T10:32:45.768Z,8.38
2019-04-30T10:37:48.625Z,11.97
2019-04-30T10:42:51.314Z,8.03
2019-04-30T10:47:54.043Z,8.13
2019-04-30T10:52:56.623Z,7.70
2019-04-30T10:57:59.423Z,7.12
2019-04-30T11:03:02.120Z,6.85
2019-04-30T11:08:05.131Z,10.35
2019-04-30T11:13:07.843Z,9.75
2019-04-30T11:18:10.638Z,7.40
2019-04-30T11:23:14.882Z,12.33
2019-04-30T11:28:18.494Z,19.25
2019-04-30T11:33:21.627Z,10.23
2019-04-30T11:38:24.391Z,9.80
2019-04-30T11:43:27.076Z,11.20
2019-04-30T11:48:29.691Z,11.05
2019-04-30T11:53:32.407Z,9.90
2019-04-30T11:58:35.132Z,13.28
2019-04-30T12:03:39.386Z,11.57
2019-04-30T12:09:01.716Z,10.93
2019-04-30T12:14:06.129Z,9.33
2019-04-30T12:19:09.115Z,7.35
2019-04-30T12:24:11.823Z,7.80
2019-04-30T12:29:14.582Z,10.58
2019-04-30T12:34:17.382Z,6.58
2019-04-30T12:39:20.062Z,9.33
2019-04-30T12:44:22.706Z,8.63
2019-04-30T12:49:25.521Z,11.60
2019-04-30T12:54:42.159Z,7.65
2019-04-30T12:59:44.856Z,6.87
2019-04-30T13:04:49.278Z,8.05
2019-04-30T13:09:52.531Z,11.40
2019-04-30T13:14:55.468Z,6.97
2019-04-30T13:19:58.351Z,5.83
2019-04-30T13:25:01.152Z,7.65
2019-04-30T13:30:15.829Z,9.18
2019-04-30T13:35:19.093Z,7.85
2019-04-30T13:40:53.476Z,6.97
2019-04-30T13:45:56.185Z,5.42
2019-04-30T13:50:58.888Z,6.33
2019-04-30T13:56:01.606Z,5.53
2019-04-30T14:01:05.555Z,7.03
2019-04-30T14:06:09.172Z,4.75
2019-04-30T14:11:11.831Z,8.23
2019-04-30T14:16:14.559Z,4.80
2019-04-30T14:21:19.324Z,5.60
2019-04-30T14:26:21.811Z,4.28
2019-04-30T14:31:26.401Z,3.25
2019-04-30T14:36:41.469Z,3.17
2019-04-30T14:41:45.423Z,3.40
2019-04-30T14:47:13.073Z,5.20
2019-04-30T14:52:19.207Z,4.37
2019-04-30T14:57:37.611Z,5.25
2019-04-30T15:02:51.817Z,4.78
2019-04-30T15:07:54.538Z,7.85
2019-04-30T15:12:57.164Z,8.10
2019-04-30T15:17:59.749Z,7.10
2019-04-30T15:23:22.072Z,7.58
2019-04-30T15:28:32.373Z,8.83
2019-04-30T15:34:10.751Z,5.12
2019-04-30T15:39:46.598Z,7.12
2019-04-30T15:44:49.768Z,8.03
2019-04-30T15:49:53.467Z,20.97
2019-04-30T15:54:56.264Z,20.48
2019-04-30T15:59:58.967Z,23.95
2019-04-30T16:05:29.074Z,10.32
2019-04-30T16:11:03.367Z,11.43
2019-04-30T16:16:06.183Z,14.98
2019-04-30T16:21:09.257Z,14.58
2019-04-30T16:26:12.238Z,8.45
2019-04-30T16:31:15.052Z,9.30
2019-04-30T16:36:19.219Z,10.53
2019-04-30T16:41:31.070Z,7.35
2019-04-30T16:46:26.818Z,8.38
2019-04-30T16:51:29.501Z,6.72
2019-04-30T16:56:32.813Z,8.15
2019-04-30T17:01:36.444Z,16.45
2019-04-30T17:06:41.972Z,10.03
2019-04-30T17:12:00.374Z,15.78
2019-04-30T17:17:03.279Z,9.17
2019-04-30T17:22:06.132Z,6.73
2019-04-30T17:27:17.166Z,8.08
2019-04-30T17:32:13.920Z,8.88
2019-04-30T17:37:18.918Z,7.95
2019-04-30T17:42:22.413Z,7.37
2019-04-30T17:47:25.378Z,4.45
2019-04-30T17:52:31.342Z,5.60
2019-04-30T17:57:34.722Z,5.95
2019-04-30T18:02:47.771Z,6.50
2019-04-30T18:07:53.308Z,7.10
2019-04-30T18:12:56.103Z,7.83
2019-04-30T18:18:14.165Z,6.73
2019-04-30T18:23:39.789Z,7.63
2019-04-30T18:28:42.567Z,10.43
2019-04-30T18:33:45.471Z,5.72
2019-04-30T18:38:51.757Z,11.30
2019-04-30T18:43:56.786Z,8.35
2019-04-30T18:48:59.437Z,8.80
2019-04-30T18:54:02.049Z,6.87
2019-04-30T18:59:08.674Z,8.17
2019-04-30T19:04:11.181Z,8.33
2019-04-30T19:09:40.097Z,8.43
2019-04-30T19:15:13.402Z,7.93
2019-04-30T19:20:19.622Z,8.90
2019-04-30T19:25:22.504Z,8.60
2019-04-30T19:30:25.657Z,12.40
2019-04-30T19:35:28.599Z,9.27
2019-04-30T19:40:31.293Z,10.03
2019-04-30T19:45:34.990Z,11.00
2019-04-30T19:50:37.731Z,11.17
2019-04-30T19:55:40.318Z,8.83
2019-04-30T20:00:43.042Z,9.80
2019-04-30T20:05:45.853Z,12.93
2019-04-30T20:10:49.634Z,11.50
2019-04-30T20:15:52.355Z,10.73
2019-04-30T20:20:56.892Z,10.60
2019-04-30T20:25:59.519Z,11.73
2019-04-30T20:31:02.708Z,10.80
2019-04-30T20:36:06.521Z,8.73
2019-04-30T20:41:09.832Z,14.43
2019-04-30T20:46:12.615Z,12.27
2019-04-30T20:51:15.239Z,12.70
2019-04-30T20:56:19.147Z,12.47
2019-04-30T21:01:22.972Z,15.87
2019-04-30T21:06:25.634Z,13.70
2019-04-30T21:11:28.236Z,12.10
2019-04-30T21:16:30.882Z,11.47
2019-04-30T21:21:33.639Z,13.60
2019-04-30T21:26:36.291Z,17.20
2019-04-30T21:32:02.881Z,14.43
2019-04-30T21:37:05.672Z,11.77
2019-04-30T21:42:09.283Z,12.83
2019-04-30T21:47:12.047Z,15.87
2019-04-30T21:52:14.790Z,15.73
2019-04-30T21:57:17.495Z,14.77
2019-04-30T22:02:20.144Z,19.63
2019-04-30T22:07:22.916Z,20.47
2019-04-30T22:12:25.621Z,21.60
2019-04-30T22:17:29.283Z,24.57
2019-04-30T22:22:31.980Z,19.20
2019-04-30T22:27:34.704Z,19.63
2019-04-30T22:32:37.374Z,19.07
2019-04-30T22:37:40.121Z,21.77
2019-04-30T22:42:42.651Z,19.83
2019-04-30T22:47:45.437Z,17.03
2019-04-30T22:52:48.124Z,20.80
2019-04-30T22:57:50.852Z,28.63
2019-04-30T23:03:15.209Z,24.63
2019-04-30T23:08:17.927Z,26.80
2019-04-30T23:13:20.705Z,25.10
2019-04-30T23:18:35.491Z,27.10
2019-04-30T23:23:38.112Z,28.40
2019-04-30T23:28:40.862Z,31.30
2019-04-30T23:33:43.503Z,60.70
2019-04-30T23:38:47.422Z,34.37
2019-04-30T23:43:50.278Z,55.20
2019-04-30T23:48:52.941Z,54.67
2019-04-30T23:53:55.688Z,79.67
2019-04-30T23:58:58.439Z,138.43
